aviador You're here:

UBBB Decoded Metar

BAKU in AZERBAIJAN
Report Time2018-07-22 16:30:00
UTC Time2018-07-22 16:38:07
Flight Rules vfr VFR
Wind330° at 10 kt
W.Decomp.*RWY 34: 9.7 kt HW 2.4 kt LCW
RWY 36: 8.3 kt HW 5.6 kt LCW
W.Rank330° ranks 1
Current wind is below 330° avg. (14.7)
Visibility9999 m
Phenomena:N/A
Clouds:Few CB 060 Hf
Broken 200 Hf
Expected CloudBase > 2,000 ft AGL from Temp-Dew spread
Ceiling20,000 ft
Temp27°C (ISA +12)
Dew Point22°C (74% RH)
Heat Index29.2°C
QNH1005 hPa
Density Alt1,978 ft
Elevation-20 ft
Report Wrong Elevation
Raw Report
UBBB 221630Z 33010KT 9999 FEW060CB BKN200 27/22 Q1005 R88/CLRD//
NOSIG=

Extra information for UBBB:More info

Metar Taf Metar & Taf Last 4 Metars F.Rules Stats Wind Profile Meteogram Temp Stats Airport Information Weather charts Add Link Nearby VenuesMetar ALERT Operation Metar Decoded Social comments